createdAt,value
2019-03-29T00:01:26.594Z,8.63
2019-03-29T00:03:57.828Z,10.10
2019-03-29T00:06:28.836Z,8.50
2019-03-29T00:09:00.190Z,9.10
2019-03-29T00:11:31.136Z,8.70
2019-03-29T00:14:02.155Z,8.50
2019-03-29T00:16:33.027Z,9.37
2019-03-29T00:19:04.063Z,9.53
2019-03-29T00:21:36.466Z,9.10
2019-03-29T00:24:07.492Z,9.07
2019-03-29T00:26:41.312Z,8.83
2019-03-29T00:29:12.126Z,9.57
2019-03-29T00:31:42.961Z,9.63
2019-03-29T00:34:14.033Z,9.13
2019-03-29T00:36:44.928Z,9.93
2019-03-29T00:39:15.815Z,9.73
2019-03-29T00:41:46.647Z,9.67
2019-03-29T00:44:17.445Z,9.47
2019-03-29T00:46:48.533Z,9.30
2019-03-29T00:49:19.349Z,10.17
2019-03-29T00:51:50.359Z,10.43
2019-03-29T00:54:21.981Z,10.30
2019-03-29T00:56:52.911Z,11.20
2019-03-29T00:59:23.771Z,10.93
2019-03-29T01:01:54.801Z,10.73
2019-03-29T01:04:25.763Z,10.20
2019-03-29T01:06:56.732Z,10.67
2019-03-29T01:09:27.631Z,11.40
2019-03-29T01:11:58.490Z,10.97
2019-03-29T01:14:29.428Z,10.23
2019-03-29T01:17:00.422Z,10.73
2019-03-29T01:19:31.285Z,11.40
2019-03-29T01:22:02.403Z,11.67
2019-03-29T01:24:33.236Z,11.73
2019-03-29T01:27:04.002Z,11.60
2019-03-29T01:29:34.840Z,12.57
2019-03-29T01:32:06.413Z,12.27
2019-03-29T01:34:38.337Z,11.30
2019-03-29T01:37:09.246Z,12.13
2019-03-29T01:39:40.191Z,10.77
2019-03-29T01:42:11.307Z,11.57
2019-03-29T01:44:42.317Z,12.50
2019-03-29T01:47:13.121Z,11.10
2019-03-29T01:49:44.039Z,11.63
2019-03-29T01:52:14.925Z,12.37
2019-03-29T01:54:46.031Z,12.20
2019-03-29T01:57:16.839Z,11.80
2019-03-29T01:59:47.880Z,12.40
2019-03-29T02:02:18.733Z,12.60
2019-03-29T02:04:49.940Z,11.80
2019-03-29T02:07:20.774Z,11.83
2019-03-29T02:09:54.650Z,11.80
2019-03-29T02:12:25.585Z,11.93
2019-03-29T02:14:56.699Z,12.10
2019-03-29T02:17:27.533Z,11.93
2019-03-29T02:19:59.905Z,12.23
2019-03-29T02:22:30.756Z,12.53
2019-03-29T02:25:01.597Z,12.47
2019-03-29T02:27:32.488Z,13.03
2019-03-29T02:30:04.559Z,13.40
2019-03-29T02:32:36.446Z,15.10
2019-03-29T02:35:08.852Z,14.67
2019-03-29T02:37:39.694Z,14.33
2019-03-29T02:40:11.850Z,15.70
2019-03-29T02:42:45.504Z,12.97
2019-03-29T02:45:16.761Z,13.77
2019-03-29T02:47:48.749Z,14.83
2019-03-29T02:50:19.883Z,15.73
2019-03-29T02:52:50.747Z,14.67
2019-03-29T02:55:21.785Z,16.63
2019-03-29T02:57:52.971Z,15.90
2019-03-29T03:00:23.929Z,15.50
2019-03-29T03:02:54.827Z,18.00
2019-03-29T03:05:25.824Z,18.50
2019-03-29T03:07:56.798Z,18.80
2019-03-29T03:10:27.720Z,17.67
2019-03-29T03:12:58.765Z,17.77
2019-03-29T03:15:29.612Z,18.57
2019-03-29T03:18:00.766Z,17.13
2019-03-29T03:20:31.655Z,17.53
2019-03-29T03:23:02.495Z,18.17
2019-03-29T03:25:36.383Z,18.77
2019-03-29T03:28:07.531Z,18.50
2019-03-29T03:30:38.504Z,17.03
2019-03-29T03:33:09.524Z,18.27
2019-03-29T03:35:40.454Z,18.63
2019-03-29T03:38:13.217Z,18.83
2019-03-29T03:40:47.422Z,18.80
2019-03-29T03:43:18.325Z,20.33
2019-03-29T03:45:49.547Z,21.93
2019-03-29T03:48:20.457Z,20.33
2019-03-29T03:50:51.771Z,20.70
2019-03-29T03:53:22.927Z,20.13
2019-03-29T03:55:55.210Z,21.13
2019-03-29T03:58:27.013Z,21.23
2019-03-29T04:00:58.916Z,22.20
2019-03-29T04:03:29.939Z,23.87
2019-03-29T04:06:00.765Z,23.23
2019-03-29T04:08:31.639Z,22.07
2019-03-29T04:11:02.481Z,22.87
2019-03-29T04:13:33.342Z,23.47
2019-03-29T04:16:04.183Z,25.03
2019-03-29T04:18:37.264Z,23.63
2019-03-29T04:21:08.150Z,25.77
2019-03-29T04:23:39.461Z,24.70
2019-03-29T04:26:11.890Z,24.77
2019-03-29T04:28:42.818Z,24.20
2019-03-29T04:31:13.736Z,24.87
2019-03-29T04:33:44.544Z,24.00
2019-03-29T04:36:15.426Z,22.80
2019-03-29T04:38:46.247Z,23.83
2019-03-29T04:41:17.074Z,24.07
2019-03-29T04:43:47.981Z,22.90
2019-03-29T04:46:18.783Z,21.90
2019-03-29T04:48:49.557Z,24.23
2019-03-29T04:51:20.512Z,22.90
2019-03-29T04:53:51.588Z,23.20
2019-03-29T04:56:22.496Z,22.50
2019-03-29T04:58:53.363Z,22.57
2019-03-29T05:01:24.337Z,21.10
2019-03-29T05:03:55.386Z,21.60
2019-03-29T05:06:26.494Z,23.43
2019-03-29T05:08:57.580Z,22.07
2019-03-29T05:11:28.801Z,23.73
2019-03-29T05:13:59.869Z,23.03
2019-03-29T05:16:31.362Z,22.03
2019-03-29T05:19:02.465Z,22.70
2019-03-29T05:21:33.348Z,23.77
2019-03-29T05:24:04.273Z,22.90
2019-03-29T05:26:35.341Z,21.30
2019-03-29T05:29:06.426Z,21.50
2019-03-29T05:31:37.453Z,22.67
2019-03-29T05:34:08.316Z,22.20
2019-03-29T05:36:39.567Z,21.80
2019-03-29T05:39:11.393Z,22.63
2019-03-29T05:41:42.235Z,21.50
2019-03-29T05:44:13.523Z,22.53
2019-03-29T05:46:45.087Z,22.27
2019-03-29T05:49:15.881Z,21.80
2019-03-29T05:51:47.122Z,21.17
2019-03-29T05:54:18.408Z,20.83
2019-03-29T05:56:49.515Z,21.53
2019-03-29T05:59:20.562Z,21.57
2019-03-29T06:01:54.548Z,22.53
2019-03-29T06:04:27.880Z,20.10
2019-03-29T06:06:59.338Z,20.97
2019-03-29T06:09:31.046Z,21.07
2019-03-29T06:12:02.272Z,22.30
2019-03-29T06:14:33.634Z,21.63
2019-03-29T06:17:04.866Z,21.90
2019-03-29T06:19:37.736Z,21.77
2019-03-29T06:22:10.759Z,21.07
2019-03-29T06:24:42.128Z,21.63
2019-03-29T06:27:13.460Z,21.40
2019-03-29T06:29:44.886Z,20.33
2019-03-29T06:32:19.338Z,21.60
2019-03-29T06:34:51.041Z,19.30
2019-03-29T06:37:23.267Z,19.03
2019-03-29T06:39:54.970Z,20.27
2019-03-29T06:42:27.586Z,19.57
2019-03-29T06:44:59.061Z,19.73
2019-03-29T06:47:30.765Z,19.67
2019-03-29T06:50:02.293Z,19.53
2019-03-29T06:52:34.177Z,18.63
2019-03-29T06:55:05.929Z,18.93
2019-03-29T06:57:37.271Z,18.93
2019-03-29T07:00:09.086Z,19.60
2019-03-29T07:02:40.375Z,19.23
2019-03-29T07:05:12.233Z,18.17
2019-03-29T07:07:44.666Z,19.37
2019-03-29T07:10:16.669Z,20.47
2019-03-29T07:12:49.807Z,18.63
2019-03-29T07:15:21.221Z,20.13
2019-03-29T07:17:52.738Z,18.73
2019-03-29T07:20:24.315Z,19.73
2019-03-29T07:22:55.566Z,17.60
2019-03-29T07:25:26.806Z,17.27
2019-03-29T07:27:58.444Z,18.17
2019-03-29T07:30:29.930Z,18.63
2019-03-29T07:33:00.856Z,18.47
2019-03-29T07:35:33.152Z,18.40
2019-03-29T07:38:04.770Z,19.40
2019-03-29T07:40:38.998Z,18.90
2019-03-29T07:43:10.698Z,19.10
2019-03-29T07:45:43.323Z,17.63
2019-03-29T07:48:14.704Z,18.43
2019-03-29T07:50:46.015Z,19.00
2019-03-29T07:53:18.468Z,19.13
2019-03-29T07:55:49.965Z,18.47
2019-03-29T07:58:20.995Z,20.10
2019-03-29T08:00:52.256Z,19.77
2019-03-29T08:03:23.931Z,18.53
2019-03-29T08:05:55.313Z,19.83
2019-03-29T08:08:32.354Z,19.67
2019-03-29T08:10:59.547Z,16.47
2019-03-29T08:13:31.081Z,18.67
2019-03-29T08:16:02.549Z,18.23
2019-03-29T08:18:34.241Z,19.57
2019-03-29T08:21:05.703Z,19.33
2019-03-29T08:23:37.178Z,21.87
2019-03-29T08:26:09.011Z,17.83
2019-03-29T08:28:40.499Z,19.33
2019-03-29T08:31:13.997Z,19.47
2019-03-29T08:33:45.938Z,19.83
2019-03-29T08:36:17.261Z,19.37
2019-03-29T08:38:48.551Z,19.50
2019-03-29T08:41:21.235Z,17.50
2019-03-29T08:43:52.775Z,17.23
2019-03-29T08:46:24.370Z,18.73
2019-03-29T08:48:55.916Z,18.03
2019-03-29T08:51:27.173Z,17.97
2019-03-29T08:53:58.601Z,18.03
2019-03-29T08:56:30.758Z,19.70
2019-03-29T08:59:02.345Z,17.17
2019-03-29T09:01:34.093Z,19.07
2019-03-29T09:04:06.153Z,17.60
2019-03-29T09:06:52.132Z,18.43
2019-03-29T09:09:12.113Z,18.60
2019-03-29T09:11:43.943Z,18.40
2019-03-29T09:14:15.549Z,18.90
2019-03-29T09:16:47.343Z,16.40
2019-03-29T09:19:18.988Z,15.60
2019-03-29T09:21:50.167Z,14.87
2019-03-29T09:24:22.548Z,16.10
2019-03-29T09:26:54.095Z,14.90
2019-03-29T09:29:25.997Z,13.80
2019-03-29T09:31:59.106Z,15.53
2019-03-29T09:34:30.329Z,14.33
2019-03-29T09:37:01.578Z,11.27
2019-03-29T09:39:33.056Z,12.10
2019-03-29T09:42:04.833Z,12.20
2019-03-29T09:44:36.262Z,14.33
2019-03-29T09:47:07.627Z,15.70
2019-03-29T09:49:42.229Z,14.70
2019-03-29T09:52:13.890Z,13.97
2019-03-29T09:54:45.002Z,9.80
2019-03-29T09:57:16.394Z,11.60
2019-03-29T09:59:48.716Z,11.97
2019-03-29T10:02:21.450Z,10.90
2019-03-29T10:04:52.940Z,10.90
2019-03-29T10:07:26.847Z,11.87
2019-03-29T10:09:57.995Z,11.73
2019-03-29T10:12:42.613Z,13.37
2019-03-29T10:15:02.410Z,13.43
2019-03-29T10:17:34.401Z,12.47
2019-03-29T10:20:06.331Z,13.87
2019-03-29T10:22:38.860Z,13.57
2019-03-29T10:25:19.334Z,12.93
2019-03-29T10:27:45.899Z,13.87
2019-03-29T10:30:25.173Z,15.53
2019-03-29T10:32:56.199Z,14.03
2019-03-29T10:35:29.969Z,14.00
2019-03-29T10:38:01.391Z,13.63
2019-03-29T10:40:32.393Z,14.73
2019-03-29T10:43:03.514Z,14.13
2019-03-29T10:45:39.875Z,13.90
2019-03-29T10:48:09.080Z,12.60
2019-03-29T10:50:40.235Z,13.63
2019-03-29T10:53:11.226Z,14.23
2019-03-29T10:55:42.562Z,14.63
2019-03-29T10:58:13.585Z,13.77
2019-03-29T11:00:46.648Z,14.57
2019-03-29T11:03:17.936Z,13.67
2019-03-29T11:05:49.674Z,14.83
2019-03-29T11:08:20.944Z,12.97
2019-03-29T11:10:52.416Z,15.20
2019-03-29T11:13:23.522Z,14.10
2019-03-29T11:15:54.892Z,13.93
2019-03-29T11:18:26.220Z,14.50
2019-03-29T11:21:00.494Z,14.03
2019-03-29T11:23:31.992Z,13.37
2019-03-29T11:26:03.390Z,12.97
2019-03-29T11:28:34.608Z,13.27
2019-03-29T11:31:05.894Z,13.07
2019-03-29T11:33:37.312Z,13.90
2019-03-29T11:36:08.619Z,14.13
2019-03-29T11:38:39.849Z,12.53
2019-03-29T11:41:11.657Z,12.90
2019-03-29T11:43:43.492Z,14.40
2019-03-29T11:46:18.304Z,14.77
2019-03-29T11:48:49.843Z,11.50
2019-03-29T11:51:21.153Z,11.87
2019-03-29T11:53:52.343Z,11.97
2019-03-29T11:56:25.203Z,11.90
2019-03-29T11:58:57.761Z,13.03
2019-03-29T12:01:29.601Z,14.53
2019-03-29T12:04:01.031Z,11.70
2019-03-29T12:06:34.170Z,12.47
2019-03-29T12:09:07.552Z,13.03
2019-03-29T12:11:40.107Z,11.90
2019-03-29T12:14:11.972Z,12.27
2019-03-29T12:16:43.552Z,12.30
2019-03-29T12:19:15.028Z,12.63
2019-03-29T12:21:46.512Z,10.37
2019-03-29T12:24:18.261Z,11.40
2019-03-29T12:26:49.962Z,10.70
2019-03-29T12:29:21.898Z,10.47
2019-03-29T12:31:53.688Z,10.63
2019-03-29T12:34:24.946Z,9.73
2019-03-29T12:36:57.254Z,10.03
2019-03-29T12:39:29.425Z,9.27
2019-03-29T12:42:00.871Z,9.40
2019-03-29T12:44:32.259Z,9.10
2019-03-29T12:47:03.931Z,9.33
2019-03-29T12:49:35.152Z,10.40
2019-03-29T12:52:07.281Z,8.30
2019-03-29T12:54:39.396Z,9.00
2019-03-29T12:57:11.103Z,9.73
2019-03-29T12:59:42.633Z,9.80
2019-03-29T13:02:14.477Z,9.37
2019-03-29T13:04:47.196Z,9.90
2019-03-29T13:07:18.769Z,9.87
2019-03-29T13:09:50.166Z,9.33
2019-03-29T13:12:23.200Z,9.20
2019-03-29T13:14:54.753Z,7.90
2019-03-29T13:17:28.458Z,8.97
2019-03-29T13:19:59.176Z,8.87
2019-03-29T13:22:30.377Z,10.00
2019-03-29T13:25:01.763Z,10.67
2019-03-29T13:27:33.041Z,9.57
2019-03-29T13:30:04.988Z,8.30
2019-03-29T13:32:36.546Z,8.87
2019-03-29T13:35:10.885Z,9.70
2019-03-29T13:37:42.143Z,8.40
2019-03-29T13:40:14.334Z,8.27
2019-03-29T13:42:45.608Z,9.03
2019-03-29T13:45:16.783Z,9.47
2019-03-29T13:47:48.128Z,8.50
2019-03-29T13:50:19.545Z,9.97
2019-03-29T13:52:50.711Z,9.90
2019-03-29T13:55:21.994Z,9.57
2019-03-29T13:57:53.465Z,9.87
2019-03-29T14:00:24.842Z,10.17
2019-03-29T14:02:56.101Z,9.67
2019-03-29T14:05:27.212Z,9.13
2019-03-29T14:07:58.536Z,9.13
2019-03-29T14:10:29.606Z,9.83
2019-03-29T14:13:02.507Z,9.53
2019-03-29T14:15:33.659Z,9.23
2019-03-29T14:18:04.972Z,9.63
2019-03-29T14:20:36.568Z,9.20
2019-03-29T14:23:08.403Z,9.30
2019-03-29T14:25:39.675Z,9.47
2019-03-29T14:28:10.954Z,9.37
2019-03-29T14:30:42.246Z,10.17
2019-03-29T14:33:13.585Z,10.03
2019-03-29T14:35:44.989Z,9.43
2019-03-29T14:38:16.831Z,9.43
2019-03-29T14:40:48.467Z,11.30
2019-03-29T14:43:19.552Z,9.73
2019-03-29T14:45:50.797Z,9.33
2019-03-29T14:48:21.958Z,9.60
2019-03-29T14:50:53.367Z,9.53
2019-03-29T14:53:24.650Z,9.60
2019-03-29T14:55:55.934Z,10.13
2019-03-29T14:58:30.032Z,10.23
2019-03-29T15:01:01.336Z,9.87
2019-03-29T15:03:32.682Z,9.90
2019-03-29T15:06:04.096Z,10.53
2019-03-29T15:08:35.251Z,9.90
2019-03-29T15:11:06.710Z,11.40
2019-03-29T15:13:39.448Z,10.47
2019-03-29T15:16:10.653Z,10.10
2019-03-29T15:18:42.185Z,8.70
2019-03-29T15:21:13.761Z,9.70
2019-03-29T15:23:45.259Z,10.13
2019-03-29T15:26:17.586Z,9.27
2019-03-29T15:28:49.023Z,10.27
2019-03-29T15:31:20.439Z,9.47
2019-03-29T15:33:51.973Z,9.73
2019-03-29T15:36:23.338Z,9.30
2019-03-29T15:38:54.949Z,8.50
2019-03-29T15:41:26.351Z,8.00
2019-03-29T15:44:00.698Z,7.97
2019-03-29T15:46:31.943Z,7.20
2019-03-29T15:49:03.274Z,6.53
2019-03-29T15:51:34.775Z,4.90
2019-03-29T15:54:08.885Z,5.60
2019-03-29T15:56:40.193Z,6.13
2019-03-29T15:59:15.587Z,7.33
2019-03-29T16:01:49.643Z,7.00
2019-03-29T16:04:23.913Z,7.03
2019-03-29T16:06:57.394Z,7.83
2019-03-29T16:09:28.716Z,7.73
2019-03-29T16:12:00.248Z,7.50
2019-03-29T16:14:32.455Z,7.80
2019-03-29T16:17:03.972Z,7.87
2019-03-29T16:19:35.382Z,7.80
2019-03-29T16:22:07.208Z,8.03
2019-03-29T16:24:41.028Z,6.60
2019-03-29T16:27:12.517Z,6.83
2019-03-29T16:29:43.888Z,6.73
2019-03-29T16:32:15.568Z,7.70
2019-03-29T16:34:50.540Z,8.73
2019-03-29T16:37:20.453Z,8.40
2019-03-29T16:39:52.187Z,8.33
2019-03-29T16:42:23.619Z,9.43
2019-03-29T16:44:57.911Z,9.53
2019-03-29T16:47:29.601Z,8.47
2019-03-29T16:50:00.823Z,8.43
2019-03-29T16:52:32.039Z,9.00
2019-03-29T16:55:13.094Z,7.80
2019-03-29T16:57:36.952Z,9.00
2019-03-29T17:00:12.384Z,9.00
2019-03-29T17:02:43.396Z,8.17
2019-03-29T17:05:16.626Z,8.00
2019-03-29T17:07:47.783Z,8.03
2019-03-29T17:10:18.978Z,7.70
2019-03-29T17:12:52.199Z,7.83
2019-03-29T17:15:23.345Z,7.70
2019-03-29T17:17:54.666Z,8.47
2019-03-29T17:20:25.836Z,8.67
2019-03-29T17:22:57.328Z,8.83
2019-03-29T17:25:28.783Z,9.33
2019-03-29T17:28:00.139Z,9.53
2019-03-29T17:30:42.661Z,8.73
2019-03-29T17:33:15.789Z,9.47
2019-03-29T17:35:46.966Z,9.10
2019-03-29T17:38:20.176Z,9.57
2019-03-29T17:40:51.408Z,9.73
2019-03-29T17:43:22.572Z,10.37
2019-03-29T17:45:55.770Z,9.70
2019-03-29T17:48:26.767Z,10.43
2019-03-29T17:50:58.364Z,9.80
2019-03-29T17:53:29.189Z,10.23
2019-03-29T17:56:00.053Z,9.77
2019-03-29T17:58:31.769Z,9.90
2019-03-29T18:01:02.761Z,9.70
2019-03-29T18:03:33.625Z,9.63
2019-03-29T18:06:04.582Z,10.90
2019-03-29T18:08:35.460Z,9.87
2019-03-29T18:11:06.394Z,10.70
2019-03-29T18:13:37.275Z,10.63
2019-03-29T18:16:08.231Z,10.87
2019-03-29T18:18:39.209Z,11.57
2019-03-29T18:21:10.174Z,9.97
2019-03-29T18:23:41.148Z,10.40
2019-03-29T18:26:12.294Z,11.03
2019-03-29T18:28:43.333Z,11.00
2019-03-29T18:31:17.810Z,12.03
2019-03-29T18:33:48.948Z,11.77
2019-03-29T18:36:21.503Z,11.33
2019-03-29T18:38:52.836Z,12.17
2019-03-29T18:41:23.782Z,11.47
2019-03-29T18:43:54.808Z,11.87
2019-03-29T18:46:26.160Z,11.07
2019-03-29T18:48:57.271Z,10.83
2019-03-29T18:51:28.301Z,11.13
2019-03-29T18:53:59.300Z,11.33
2019-03-29T18:56:30.465Z,10.70
2019-03-29T18:59:01.596Z,11.70
2019-03-29T19:01:33.027Z,11.03
2019-03-29T19:04:04.212Z,12.67
2019-03-29T19:06:35.336Z,10.97
2019-03-29T19:09:07.885Z,11.47
2019-03-29T19:11:39.676Z,11.50
2019-03-29T19:14:11.499Z,10.97
2019-03-29T19:16:42.783Z,11.80
2019-03-29T19:19:13.732Z,11.83
2019-03-29T19:21:44.757Z,12.73
2019-03-29T19:24:15.809Z,13.17
2019-03-29T19:26:52.811Z,12.30
2019-03-29T19:29:24.061Z,11.50
2019-03-29T19:31:56.157Z,12.47
2019-03-29T19:34:27.314Z,11.67
2019-03-29T19:37:01.413Z,11.00
2019-03-29T19:39:31.084Z,11.27
2019-03-29T19:42:02.087Z,11.10
2019-03-29T19:44:33.432Z,11.23
2019-03-29T19:47:13.420Z,10.83
2019-03-29T19:49:37.293Z,10.40
2019-03-29T19:52:08.386Z,10.07
2019-03-29T19:54:39.311Z,10.00
2019-03-29T19:57:10.292Z,9.53
2019-03-29T19:59:42.844Z,9.73
2019-03-29T20:02:13.956Z,10.13
2019-03-29T20:04:44.850Z,9.57
2019-03-29T20:07:15.932Z,8.87
2019-03-29T20:09:47.407Z,9.80
2019-03-29T20:12:18.965Z,10.00
2019-03-29T20:14:50.988Z,10.13
2019-03-29T20:17:27.583Z,10.03
2019-03-29T20:19:54.466Z,9.90
2019-03-29T20:22:25.468Z,9.80
2019-03-29T20:24:56.535Z,8.70
2019-03-29T20:27:27.351Z,9.60
2019-03-29T20:29:58.345Z,10.00
2019-03-29T20:32:29.257Z,10.17
2019-03-29T20:35:00.370Z,9.93
2019-03-29T20:37:31.662Z,10.33
2019-03-29T20:40:02.657Z,10.60
2019-03-29T20:42:35.715Z,9.87
2019-03-29T20:45:07.257Z,9.67
2019-03-29T20:47:42.320Z,10.13
2019-03-29T20:50:11.710Z,10.57
2019-03-29T20:52:42.669Z,11.60
2019-03-29T20:55:13.576Z,10.87
2019-03-29T20:57:44.651Z,10.90
2019-03-29T21:00:16.797Z,11.33
2019-03-29T21:02:47.814Z,11.43
2019-03-29T21:05:18.733Z,11.80
2019-03-29T21:07:49.734Z,12.33
2019-03-29T21:10:20.956Z,13.13
2019-03-29T21:12:53.237Z,12.30
2019-03-29T21:15:24.234Z,11.87
2019-03-29T21:17:57.107Z,12.30
2019-03-29T21:20:27.734Z,12.37
2019-03-29T21:22:58.665Z,12.60
2019-03-29T21:25:29.706Z,12.43
2019-03-29T21:28:00.700Z,13.27
2019-03-29T21:30:31.734Z,12.43
2019-03-29T21:33:02.800Z,12.23
2019-03-29T21:35:33.705Z,11.53
2019-03-29T21:38:04.743Z,12.37
2019-03-29T21:40:35.846Z,12.13
2019-03-29T21:43:06.835Z,13.23
2019-03-29T21:45:37.823Z,13.20
2019-03-29T21:48:27.282Z,12.80
2019-03-29T21:50:41.641Z,14.20
2019-03-29T21:53:12.759Z,12.80
2019-03-29T21:55:43.737Z,14.17
2019-03-29T21:58:14.780Z,14.47
2019-03-29T22:00:48.112Z,15.83
2019-03-29T22:03:19.075Z,14.03
2019-03-29T22:05:49.988Z,14.07
2019-03-29T22:08:20.865Z,14.43
2019-03-29T22:10:51.859Z,15.40
2019-03-29T22:13:22.830Z,17.50
2019-03-29T22:15:53.870Z,17.60
2019-03-29T22:18:37.250Z,18.50
2019-03-29T22:20:57.359Z,17.03
2019-03-29T22:23:28.263Z,18.57
2019-03-29T22:26:01.130Z,17.53
2019-03-29T22:28:31.695Z,16.70
2019-03-29T22:31:02.729Z,18.17
2019-03-29T22:33:33.597Z,17.97
2019-03-29T22:36:04.650Z,16.50
2019-03-29T22:38:35.641Z,16.60
2019-03-29T22:41:06.620Z,17.00
2019-03-29T22:43:40.603Z,16.83
2019-03-29T22:46:11.618Z,16.23
2019-03-29T22:48:52.033Z,14.10
2019-03-29T22:51:17.234Z,14.23
2019-03-29T22:53:48.224Z,14.27
2019-03-29T22:56:19.192Z,13.70
2019-03-29T22:58:52.289Z,13.77
2019-03-29T23:01:25.754Z,13.53
2019-03-29T23:03:57.846Z,15.20
2019-03-29T23:06:28.859Z,14.47
2019-03-29T23:08:59.812Z,15.23
2019-03-29T23:11:30.883Z,14.40
2019-03-29T23:14:02.765Z,14.73
2019-03-29T23:16:34.905Z,13.93
2019-03-29T23:19:07.124Z,14.70
2019-03-29T23:21:39.281Z,14.70
2019-03-29T23:24:10.612Z,14.13
2019-03-29T23:26:41.859Z,13.47
2019-03-29T23:29:12.783Z,12.40
2019-03-29T23:31:43.876Z,12.47
2019-03-29T23:34:14.812Z,12.17
2019-03-29T23:36:45.797Z,14.00
2019-03-29T23:39:16.763Z,12.60
2019-03-29T23:41:47.760Z,12.67
2019-03-29T23:44:19.922Z,13.60
2019-03-29T23:46:53.467Z,12.30
2019-03-29T23:49:24.471Z,13.20
2019-03-29T23:51:55.416Z,13.57
2019-03-29T23:54:26.375Z,11.97
2019-03-29T23:56:57.368Z,12.63
2019-03-29T23:59:28.342Z,12.10
